createdAt,value
2017-07-28T00:00:01.461Z,16.48
2017-07-28T00:00:05.808Z,16.42
2017-07-28T00:00:10.261Z,16.47
2017-07-28T00:00:14.734Z,16.47
2017-07-28T00:00:19.182Z,16.48
2017-07-28T00:00:23.525Z,16.45
2017-07-28T00:00:27.879Z,16.37
2017-07-28T00:00:32.240Z,16.42
2017-07-28T00:00:36.702Z,16.41
2017-07-28T00:00:40.926Z,16.47
2017-07-28T00:00:45.390Z,16.47
2017-07-28T00:00:49.761Z,16.51
2017-07-28T00:00:54.117Z,16.48
2017-07-28T00:00:58.339Z,16.45
2017-07-28T00:01:02.674Z,16.44
2017-07-28T00:01:07.043Z,16.47
2017-07-28T00:01:11.499Z,16.44
2017-07-28T00:01:15.845Z,16.48
2017-07-28T00:01:20.305Z,16.51
2017-07-28T00:01:24.767Z,16.48
2017-07-28T00:01:28.987Z,16.48
2017-07-28T00:01:33.327Z,16.45
2017-07-28T00:01:37.802Z,16.47
2017-07-28T00:01:42.270Z,16.33
2017-07-28T00:01:46.503Z,16.36
2017-07-28T00:01:50.834Z,16.48
2017-07-28T00:01:55.057Z,16.48
2017-07-28T00:01:59.392Z,16.51
2017-07-28T00:02:03.804Z,16.51
2017-07-28T00:02:08.278Z,16.48
2017-07-28T00:02:12.622Z,16.5
2017-07-28T00:02:17.095Z,16.41
2017-07-28T00:02:21.570Z,16.48
2017-07-28T00:02:25.907Z,16.4
2017-07-28T00:02:30.259Z,16.41
2017-07-28T00:02:34.733Z,16.42
2017-07-28T00:02:39.083Z,16.47
2017-07-28T00:02:43.422Z,16.41
2017-07-28T00:02:47.774Z,16.34
2017-07-28T00:02:52.249Z,16.48
2017-07-28T00:02:56.713Z,16.47
2017-07-28T00:03:01.176Z,16.44
2017-07-28T00:03:05.459Z,16.47
2017-07-28T00:03:09.920Z,16.51
2017-07-28T00:03:14.291Z,16.36
2017-07-28T00:03:18.744Z,16.51
2017-07-28T00:03:23.084Z,16.37
2017-07-28T00:03:27.323Z,16.42
2017-07-28T00:03:31.560Z,16.45
2017-07-28T00:03:36.020Z,16.48
2017-07-28T00:03:40.369Z,16.45
2017-07-28T00:03:44.841Z,16.47
2017-07-28T00:03:49.189Z,16.42
2017-07-28T00:03:53.649Z,16.37
2017-07-28T00:03:58.127Z,16.45
2017-07-28T00:04:02.472Z,16.5
2017-07-28T00:04:06.822Z,16.44
2017-07-28T00:04:11.300Z,16.44
2017-07-28T00:04:15.786Z,16.48
2017-07-28T00:04:20.258Z,16.47
2017-07-28T00:04:24.611Z,16.51
2017-07-28T00:04:28.831Z,16.42
2017-07-28T00:04:33.060Z,16.47
2017-07-28T00:04:37.544Z,16.48
2017-07-28T00:04:41.995Z,16.44
2017-07-28T00:04:46.456Z,16.45
2017-07-28T00:04:50.916Z,16.44
2017-07-28T00:04:55.368Z,16.48
2017-07-28T00:04:59.706Z,16.44
2017-07-28T00:05:04.200Z,16.48
2017-07-28T00:05:08.536Z,16.5
2017-07-28T00:05:12.987Z,16.44
2017-07-28T00:05:17.433Z,16.47
2017-07-28T00:05:21.910Z,16.52
2017-07-28T00:05:26.362Z,16.45
2017-07-28T00:05:30.695Z,16.45
2017-07-28T00:05:35.051Z,16.48
2017-07-28T00:05:39.521Z,16.48
2017-07-28T00:05:43.755Z,16.47
2017-07-28T00:05:48.205Z,16.51
2017-07-28T00:05:52.429Z,16.45
2017-07-28T00:05:56.796Z,16.42
2017-07-28T00:06:01.250Z,16.47
2017-07-28T00:06:05.896Z,16.47
2017-07-28T00:06:10.019Z,16.5
2017-07-28T00:06:14.483Z,16.44
2017-07-28T00:06:18.952Z,16.45
2017-07-28T00:06:23.425Z,16.48
2017-07-28T00:06:27.776Z,16.5
2017-07-28T00:06:32.013Z,16.47
2017-07-28T00:06:36.251Z,16.52
2017-07-28T00:06:40.720Z,16.51
2017-07-28T00:06:45.077Z,16.51
2017-07-28T00:06:49.540Z,16.47
2017-07-28T00:06:53.996Z,16.44
2017-07-28T00:06:58.357Z,16.44
2017-07-28T00:07:02.737Z,16.4
2017-07-28T00:07:07.096Z,16.48
2017-07-28T00:07:11.433Z,16.47
2017-07-28T00:07:15.898Z,16.45
2017-07-28T00:07:20.247Z,16.44
2017-07-28T00:07:24.579Z,16.59
2017-07-28T00:07:28.797Z,16.42
2017-07-28T00:07:33.040Z,16.47
2017-07-28T00:07:37.399Z,16.52
2017-07-28T00:07:41.876Z,16.45
2017-07-28T00:07:46.225Z,16.37
2017-07-28T00:07:50.577Z,16.44
2017-07-28T00:07:55.047Z,16.51
2017-07-28T00:07:59.509Z,16.44
2017-07-28T00:08:04.017Z,16.44
2017-07-28T00:08:08.358Z,16.44
2017-07-28T00:08:12.702Z,16.42
2017-07-28T00:08:17.162Z,16.44
2017-07-28T00:08:21.504Z,16.47
2017-07-28T00:08:25.953Z,16.45
2017-07-28T00:08:30.411Z,16.47
2017-07-28T00:08:34.646Z,16.45
2017-07-28T00:08:39.109Z,16.48
2017-07-28T00:08:43.569Z,16.45
2017-07-28T00:08:47.925Z,16.44
2017-07-28T00:08:52.252Z,16.44
2017-07-28T00:08:56.714Z,16.47
2017-07-28T00:09:01.044Z,16.48
2017-07-28T00:09:05.422Z,16.45
2017-07-28T00:09:09.770Z,16.47
2017-07-28T00:09:14.229Z,16.44
2017-07-28T00:09:18.701Z,16.47
2017-07-28T00:09:23.038Z,16.41
2017-07-28T00:09:27.379Z,16.4
2017-07-28T00:09:31.715Z,16.51
2017-07-28T00:09:36.065Z,16.36
2017-07-28T00:09:40.523Z,16.44
2017-07-28T00:09:44.975Z,16.44
2017-07-28T00:09:49.433Z,16.44
2017-07-28T00:09:53.782Z,16.48
2017-07-28T00:09:58.239Z,16.5
2017-07-28T00:10:02.586Z,16.47
2017-07-28T00:10:06.819Z,16.42
2017-07-28T00:10:11.169Z,16.47
2017-07-28T00:10:15.639Z,16.52
2017-07-28T00:10:20.101Z,16.45
2017-07-28T00:10:24.618Z,16.45
2017-07-28T00:10:28.951Z,16.51
2017-07-28T00:10:33.055Z,16.42
2017-07-28T00:10:37.403Z,16.47
2017-07-28T00:10:41.873Z,16.47
2017-07-28T00:10:46.342Z,16.48
2017-07-28T00:10:50.796Z,16.51
2017-07-28T00:10:55.131Z,16.47
2017-07-28T00:10:59.500Z,16.44
2017-07-28T00:11:04.025Z,16.45
2017-07-28T00:11:08.492Z,16.44
2017-07-28T00:11:12.812Z,16.45
2017-07-28T00:11:17.268Z,16.42
2017-07-28T00:11:21.626Z,16.44
2017-07-28T00:11:25.865Z,16.47
2017-07-28T00:11:30.092Z,16.48
2017-07-28T00:11:34.441Z,16.47
2017-07-28T00:11:38.908Z,16.42
2017-07-28T00:11:43.378Z,16.44
2017-07-28T00:11:47.839Z,16.4
2017-07-28T00:11:52.178Z,16.48
2017-07-28T00:11:56.626Z,16.48
2017-07-28T00:12:01.079Z,16.55
2017-07-28T00:12:05.365Z,16.45
2017-07-28T00:12:09.834Z,16.48
2017-07-28T00:12:14.293Z,16.48
2017-07-28T00:12:18.639Z,16.44
2017-07-28T00:12:22.962Z,16.47
2017-07-28T00:12:27.424Z,16.5
2017-07-28T00:12:31.768Z,16.5
2017-07-28T00:12:36.125Z,16.48
2017-07-28T00:12:40.610Z,16.4
2017-07-28T00:12:45.074Z,16.48
2017-07-28T00:12:49.530Z,16.4
2017-07-28T00:12:53.871Z,16.48
2017-07-28T00:12:58.348Z,16.48
2017-07-28T00:13:02.813Z,16.47
2017-07-28T00:13:07.035Z,16.41
2017-07-28T00:13:11.510Z,16.44
2017-07-28T00:13:15.861Z,16.47
2017-07-28T00:13:20.326Z,16.48
2017-07-28T00:13:24.559Z,16.47
2017-07-28T00:13:28.803Z,16.48
2017-07-28T00:13:33.145Z,16.51
2017-07-28T00:13:37.369Z,16.48
2017-07-28T00:13:41.823Z,16.5
2017-07-28T00:13:46.288Z,16.55
2017-07-28T00:13:50.762Z,16.45
2017-07-28T00:13:55.230Z,16.42
2017-07-28T00:13:59.683Z,16.51
2017-07-28T00:14:04.036Z,16.47
2017-07-28T00:14:08.140Z,16.42
2017-07-28T00:14:12.481Z,16.42
2017-07-28T00:14:16.712Z,16.44
2017-07-28T00:14:21.053Z,16.57
2017-07-28T00:14:25.542Z,16.5
2017-07-28T00:14:29.770Z,16.51
2017-07-28T00:14:34.238Z,16.48
2017-07-28T00:14:38.581Z,16.5
2017-07-28T00:14:43.053Z,16.44
2017-07-28T00:14:47.515Z,16.52
2017-07-28T00:14:51.967Z,16.5
2017-07-28T00:14:56.201Z,16.5
2017-07-28T00:15:00.662Z,16.41
2017-07-28T00:15:05.243Z,16.5
2017-07-28T00:15:09.729Z,16.37
2017-07-28T00:15:14.193Z,16.45
2017-07-28T00:15:18.529Z,16.44
2017-07-28T00:15:22.994Z,16.48
2017-07-28T00:15:27.352Z,16.5
2017-07-28T00:15:31.471Z,16.54
2017-07-28T00:15:35.925Z,16.45
2017-07-28T00:15:40.370Z,16.42
2017-07-28T00:15:44.827Z,16.41
2017-07-28T00:15:49.314Z,16.51
2017-07-28T00:15:53.765Z,16.4
2017-07-28T00:15:58.213Z,16.48
2017-07-28T00:16:02.758Z,16.51
2017-07-28T00:16:07.110Z,16.48
2017-07-28T00:16:11.449Z,16.44
2017-07-28T00:16:16.099Z,16.48
2017-07-28T00:16:20.461Z,16.52
2017-07-28T00:16:24.798Z,16.51
2017-07-28T00:16:29.147Z,16.45
2017-07-28T00:16:33.496Z,16.45
2017-07-28T00:16:37.841Z,16.51
2017-07-28T00:16:42.187Z,16.52
2017-07-28T00:16:46.646Z,16.44
2017-07-28T00:16:51.117Z,16.45
2017-07-28T00:16:55.259Z,16.51
2017-07-28T00:16:59.713Z,16.5
2017-07-28T00:17:04.308Z,16.44
2017-07-28T00:17:08.545Z,16.45
2017-07-28T00:17:13.032Z,16.54
2017-07-28T00:17:17.484Z,16.57
2017-07-28T00:17:21.945Z,16.5
2017-07-28T00:17:26.333Z,16.57
2017-07-28T00:17:30.550Z,16.45
2017-07-28T00:17:35.006Z,16.44
2017-07-28T00:17:39.457Z,16.54
2017-07-28T00:17:43.800Z,16.45
2017-07-28T00:17:48.272Z,16.55
2017-07-28T00:17:52.736Z,16.52
2017-07-28T00:17:57.203Z,16.47
2017-07-28T00:18:01.315Z,16.51
2017-07-28T00:18:05.804Z,16.57
2017-07-28T00:18:10.155Z,16.5
2017-07-28T00:18:14.489Z,16.52
2017-07-28T00:18:18.825Z,16.52
2017-07-28T00:18:23.278Z,16.51
2017-07-28T00:18:27.743Z,16.55
2017-07-28T00:18:32.076Z,16.54
2017-07-28T00:18:36.413Z,16.57
2017-07-28T00:18:40.871Z,16.52
2017-07-28T00:18:45.324Z,16.51
2017-07-28T00:18:49.790Z,16.55
2017-07-28T00:18:54.135Z,16.47
2017-07-28T00:18:58.466Z,16.55
2017-07-28T00:19:02.826Z,16.5
2017-07-28T00:19:07.182Z,16.65
2017-07-28T00:19:11.525Z,16.45
2017-07-28T00:19:15.857Z,16.5
2017-07-28T00:19:20.332Z,16.52
2017-07-28T00:19:24.565Z,16.55
2017-07-28T00:19:28.894Z,16.55
2017-07-28T00:19:33.107Z,16.55
2017-07-28T00:19:37.463Z,16.51
2017-07-28T00:19:41.922Z,16.54
2017-07-28T00:19:46.268Z,16.52
2017-07-28T00:19:50.729Z,16.52
2017-07-28T00:19:55.190Z,16.45
2017-07-28T00:19:59.529Z,16.55
2017-07-28T00:20:04.132Z,16.52
2017-07-28T00:20:08.482Z,16.5
2017-07-28T00:20:12.728Z,16.54
2017-07-28T00:20:17.076Z,16.5
2017-07-28T00:20:21.411Z,16.54
2017-07-28T00:20:25.750Z,16.51
2017-07-28T00:20:29.958Z,16.5
2017-07-28T00:20:34.294Z,16.5
2017-07-28T00:20:38.750Z,16.5
2017-07-28T00:20:43.103Z,16.54
2017-07-28T00:20:47.566Z,16.5
2017-07-28T00:20:52.032Z,16.59
2017-07-28T00:20:56.373Z,16.52
2017-07-28T00:21:00.725Z,16.59
2017-07-28T00:21:05.368Z,16.52
2017-07-28T00:21:09.831Z,16.55
2017-07-28T00:21:14.170Z,16.63
2017-07-28T00:21:18.399Z,16.52
2017-07-28T00:21:22.882Z,16.5
2017-07-28T00:21:27.336Z,16.54
2017-07-28T00:21:31.797Z,16.54
2017-07-28T00:21:36.125Z,16.59
2017-07-28T00:21:40.589Z,16.52
2017-07-28T00:21:44.924Z,16.54
2017-07-28T00:21:49.389Z,16.57
2017-07-28T00:21:53.737Z,16.59
2017-07-28T00:21:58.184Z,16.55
2017-07-28T00:22:02.527Z,16.54
2017-07-28T00:22:06.874Z,16.62
2017-07-28T00:22:11.326Z,16.52
2017-07-28T00:22:15.677Z,16.55
2017-07-28T00:22:20.122Z,16.54
2017-07-28T00:22:24.444Z,16.57
2017-07-28T00:22:28.660Z,16.55
2017-07-28T00:22:33.002Z,16.57
2017-07-28T00:22:37.450Z,16.57
2017-07-28T00:22:41.928Z,16.54
2017-07-28T00:22:46.315Z,16.54
2017-07-28T00:22:50.772Z,16.57
2017-07-28T00:22:55.227Z,16.54
2017-07-28T00:22:59.699Z,16.59
2017-07-28T00:23:04.100Z,16.55
2017-07-28T00:23:08.570Z,16.57
2017-07-28T00:23:12.800Z,16.5
2017-07-28T00:23:17.151Z,16.54
2017-07-28T00:23:21.498Z,16.51
2017-07-28T00:23:25.845Z,16.59
2017-07-28T00:23:30.184Z,16.57
2017-07-28T00:23:34.529Z,16.6
2017-07-28T00:23:38.988Z,16.62
2017-07-28T00:23:43.327Z,16.54
2017-07-28T00:23:47.676Z,16.55
2017-07-28T00:23:52.156Z,16.55
2017-07-28T00:23:56.530Z,16.57
2017-07-28T00:24:01.002Z,16.55
2017-07-28T00:24:05.366Z,16.55
2017-07-28T00:24:09.603Z,16.52
2017-07-28T00:24:14.074Z,16.54
2017-07-28T00:24:18.534Z,16.55
2017-07-28T00:24:23.002Z,16.57
2017-07-28T00:24:27.491Z,16.55
2017-07-28T00:24:31.727Z,16.59
2017-07-28T00:24:36.059Z,16.57
2017-07-28T00:24:40.559Z,16.54
2017-07-28T00:24:44.997Z,16.54
2017-07-28T00:24:49.446Z,16.57
2017-07-28T00:24:53.797Z,16.62
2017-07-28T00:24:58.266Z,16.54
2017-07-28T00:25:02.910Z,16.54
2017-07-28T00:25:07.307Z,16.6
2017-07-28T00:25:11.661Z,16.55
2017-07-28T00:25:16.021Z,16.6
2017-07-28T00:25:20.468Z,16.59
2017-07-28T00:25:24.918Z,16.54
2017-07-28T00:25:29.270Z,16.55
2017-07-28T00:25:33.626Z,16.54
2017-07-28T00:25:38.100Z,16.6
2017-07-28T00:25:42.565Z,16.48
2017-07-28T00:25:47.032Z,16.48
2017-07-28T00:25:51.408Z,16.55
2017-07-28T00:25:55.870Z,16.57
2017-07-28T00:26:00.333Z,16.57
2017-07-28T00:26:04.732Z,16.54
2017-07-28T00:26:08.966Z,16.54
2017-07-28T00:26:13.431Z,16.55
2017-07-28T00:26:17.531Z,16.55
2017-07-28T00:26:21.988Z,16.6
2017-07-28T00:26:26.450Z,16.52
2017-07-28T00:26:30.553Z,16.57
2017-07-28T00:26:35.017Z,16.54
2017-07-28T00:26:39.503Z,16.57
2017-07-28T00:26:43.957Z,16.55
2017-07-28T00:26:48.435Z,16.57
2017-07-28T00:26:52.654Z,16.55
2017-07-28T00:26:57.125Z,16.51
2017-07-28T00:27:01.458Z,16.54
2017-07-28T00:27:05.447Z,16.6
2017-07-28T00:27:09.909Z,16.59
2017-07-28T00:27:14.366Z,16.6
2017-07-28T00:27:18.598Z,16.6
2017-07-28T00:27:23.056Z,16.54
2017-07-28T00:27:27.563Z,16.57
2017-07-28T00:27:31.910Z,16.62
2017-07-28T00:27:36.380Z,16.52
2017-07-28T00:27:40.849Z,16.54
2017-07-28T00:27:45.320Z,16.48
2017-07-28T00:27:49.780Z,16.57
2017-07-28T00:27:54.102Z,16.6
2017-07-28T00:27:58.438Z,16.55
2017-07-28T00:28:02.777Z,16.57
2017-07-28T00:28:07.118Z,16.6
2017-07-28T00:28:11.575Z,16.52
2017-07-28T00:28:15.958Z,16.55
2017-07-28T00:28:20.314Z,16.55
2017-07-28T00:28:24.643Z,16.57
2017-07-28T00:28:28.995Z,16.6
2017-07-28T00:28:33.223Z,16.67
2017-07-28T00:28:37.328Z,16.54
2017-07-28T00:28:41.782Z,16.6
2017-07-28T00:28:46.235Z,16.62
2017-07-28T00:28:50.603Z,16.62
2017-07-28T00:28:55.060Z,16.57
2017-07-28T00:28:59.293Z,16.57
2017-07-28T00:29:03.813Z,16.54
2017-07-28T00:29:08.269Z,16.55
2017-07-28T00:29:12.595Z,16.57
2017-07-28T00:29:17.059Z,16.55
2017-07-28T00:29:21.535Z,16.51
2017-07-28T00:29:25.796Z,16.54
2017-07-28T00:29:30.013Z,16.57
2017-07-28T00:29:34.346Z,16.66
2017-07-28T00:29:38.683Z,16.55
2017-07-28T00:29:43.152Z,16.59
2017-07-28T00:29:47.624Z,16.54
2017-07-28T00:29:52.081Z,16.52
2017-07-28T00:29:56.565Z,16.54
2017-07-28T00:30:00.898Z,16.52
2017-07-28T00:30:05.119Z,16.54
2017-07-28T00:30:09.344Z,16.48
2017-07-28T00:30:13.827Z,16.51
2017-07-28T00:30:18.155Z,16.54
2017-07-28T00:30:22.617Z,16.57
2017-07-28T00:30:26.722Z,16.55
2017-07-28T00:30:31.187Z,16.52
2017-07-28T00:30:35.632Z,16.55
2017-07-28T00:30:40.108Z,16.52
2017-07-28T00:30:44.587Z,16.51
2017-07-28T00:30:49.075Z,16.52
2017-07-28T00:30:53.553Z,16.62
2017-07-28T00:30:57.882Z,16.54
2017-07-28T00:31:02.712Z,16.62
2017-07-28T00:31:07.176Z,16.54
2017-07-28T00:31:11.638Z,16.62
2017-07-28T00:31:16.084Z,16.52
2017-07-28T00:31:20.593Z,16.54
2017-07-28T00:31:24.829Z,16.55
2017-07-28T00:31:29.274Z,16.55
2017-07-28T00:31:33.604Z,16.54
2017-07-28T00:31:37.975Z,16.48
2017-07-28T00:31:42.430Z,16.52
2017-07-28T00:31:46.902Z,16.55
2017-07-28T00:31:51.354Z,16.62
2017-07-28T00:31:55.826Z,16.54
2017-07-28T00:32:00.173Z,16.54
2017-07-28T00:32:04.648Z,16.57
2017-07-28T00:32:09.117Z,16.54
2017-07-28T00:32:13.572Z,16.55
2017-07-28T00:32:18.046Z,16.54
2017-07-28T00:32:22.276Z,16.55
2017-07-28T00:32:26.659Z,16.55
2017-07-28T00:32:30.647Z,16.52
2017-07-28T00:32:35.107Z,16.52
2017-07-28T00:32:39.554Z,16.54
2017-07-28T00:32:43.921Z,16.52
2017-07-28T00:32:48.398Z,16.55
2017-07-28T00:32:52.632Z,16.57
2017-07-28T00:32:56.971Z,16.51
2017-07-28T00:33:01.348Z,16.51
2017-07-28T00:33:05.804Z,16.57
2017-07-28T00:33:10.151Z,16.54
2017-07-28T00:33:14.610Z,16.48
2017-07-28T00:33:19.088Z,16.57
2017-07-28T00:33:23.439Z,16.52
2017-07-28T00:33:27.907Z,16.54
2017-07-28T00:33:32.383Z,16.57
2017-07-28T00:33:36.849Z,16.48
2017-07-28T00:33:41.308Z,16.54
2017-07-28T00:33:45.762Z,16.54
2017-07-28T00:33:50.117Z,16.48
2017-07-28T00:33:54.347Z,16.55
2017-07-28T00:33:58.458Z,16.59
2017-07-28T00:34:02.788Z,16.54
2017-07-28T00:34:07.135Z,16.54
2017-07-28T00:34:11.140Z,16.52
2017-07-28T00:34:15.481Z,16.54
2017-07-28T00:34:19.945Z,16.52
2017-07-28T00:34:24.183Z,16.52
2017-07-28T00:34:28.534Z,16.59
2017-07-28T00:34:32.906Z,16.57
2017-07-28T00:34:37.366Z,16.48
2017-07-28T00:34:41.807Z,16.51
2017-07-28T00:34:46.153Z,16.54
2017-07-28T00:34:50.493Z,16.62
2017-07-28T00:34:54.845Z,16.57
2017-07-28T00:34:59.176Z,16.5
2017-07-28T00:35:03.738Z,16.52
2017-07-28T00:35:08.192Z,16.54
2017-07-28T00:35:12.656Z,16.54
2017-07-28T00:35:17.119Z,16.57
2017-07-28T00:35:21.475Z,16.51
2017-07-28T00:35:25.823Z,16.62
2017-07-28T00:35:30.038Z,16.51
2017-07-28T00:35:34.378Z,16.51
2017-07-28T00:35:38.833Z,16.57
2017-07-28T00:35:43.173Z,16.55
2017-07-28T00:35:47.641Z,16.52
2017-07-28T00:35:52.109Z,16.54
2017-07-28T00:35:56.560Z,16.52
2017-07-28T00:36:01.028Z,16.47
2017-07-28T00:36:05.548Z,16.6
2017-07-28T00:36:09.890Z,16.55
2017-07-28T00:36:14.234Z,16.51
2017-07-28T00:36:18.688Z,16.55
2017-07-28T00:36:23.018Z,16.51
2017-07-28T00:36:27.484Z,16.52
2017-07-28T00:36:31.696Z,16.52
2017-07-28T00:36:36.151Z,16.57
2017-07-28T00:36:40.510Z,16.5
2017-07-28T00:36:44.748Z,16.51
2017-07-28T00:36:49.230Z,16.55
2017-07-28T00:36:53.707Z,16.54
2017-07-28T00:36:58.173Z,16.54
2017-07-28T00:37:02.589Z,16.54
2017-07-28T00:37:06.932Z,16.52
2017-07-28T00:37:11.387Z,16.55
2017-07-28T00:37:15.854Z,16.59
2017-07-28T00:37:20.101Z,16.55
2017-07-28T00:37:24.439Z,16.59
2017-07-28T00:37:28.773Z,16.54
2017-07-28T00:37:33.114Z,16.51
2017-07-28T00:37:37.586Z,16.54
2017-07-28T00:37:42.038Z,16.52
2017-07-28T00:37:46.496Z,16.52
2017-07-28T00:37:50.827Z,16.52
2017-07-28T00:37:55.270Z,16.54
2017-07-28T00:37:59.724Z,16.54
2017-07-28T00:38:04.304Z,16.5
2017-07-28T00:38:08.663Z,16.54
2017-07-28T00:38:13.128Z,16.55
2017-07-28T00:38:17.571Z,16.52
2017-07-28T00:38:22.032Z,16.54
2017-07-28T00:38:26.370Z,16.5
2017-07-28T00:38:30.596Z,16.55
2017-07-28T00:38:34.833Z,16.55
2017-07-28T00:38:39.302Z,16.52
2017-07-28T00:38:43.675Z,16.54
2017-07-28T00:38:48.133Z,16.52
2017-07-28T00:38:52.477Z,16.54
2017-07-28T00:38:56.975Z,16.55
2017-07-28T00:39:01.318Z,16.5
2017-07-28T00:39:05.559Z,16.52
2017-07-28T00:39:10.016Z,16.51
2017-07-28T00:39:14.356Z,16.54
2017-07-28T00:39:18.805Z,16.57
2017-07-28T00:39:23.151Z,16.52
2017-07-28T00:39:27.364Z,16.55
2017-07-28T00:39:31.459Z,16.54
2017-07-28T00:39:35.798Z,16.54
2017-07-28T00:39:40.251Z,16.55
2017-07-28T00:39:44.701Z,16.54
2017-07-28T00:39:49.166Z,16.54
2017-07-28T00:39:53.508Z,16.51
2017-07-28T00:39:57.966Z,16.54
2017-07-28T00:40:02.435Z,16.5
2017-07-28T00:40:06.678Z,16.51
2017-07-28T00:40:11.157Z,16.54
2017-07-28T00:40:15.141Z,16.55
2017-07-28T00:40:19.598Z,16.5
2017-07-28T00:40:23.943Z,16.5
2017-07-28T00:40:28.301Z,16.51
2017-07-28T00:40:32.535Z,16.54
2017-07-28T00:40:37.012Z,16.55
2017-07-28T00:40:41.462Z,16.5
2017-07-28T00:40:45.918Z,16.55
2017-07-28T00:40:50.391Z,16.51
2017-07-28T00:40:54.868Z,16.5
2017-07-28T00:40:59.344Z,16.45
2017-07-28T00:41:03.939Z,16.5
2017-07-28T00:41:08.408Z,16.55
2017-07-28T00:41:12.871Z,16.47
2017-07-28T00:41:17.212Z,16.55
2017-07-28T00:41:21.568Z,16.51
2017-07-28T00:41:26.017Z,16.47
2017-07-28T00:41:30.132Z,16.54
2017-07-28T00:41:34.479Z,16.59
2017-07-28T00:41:38.930Z,16.5
2017-07-28T00:41:43.395Z,16.55
2017-07-28T00:41:47.852Z,16.52
2017-07-28T00:41:52.313Z,16.48
2017-07-28T00:41:56.643Z,16.51
2017-07-28T00:42:01.108Z,16.52
2017-07-28T00:42:05.575Z,16.48
2017-07-28T00:42:10.047Z,16.52
2017-07-28T00:42:14.510Z,16.52
2017-07-28T00:42:18.735Z,16.55
2017-07-28T00:42:23.112Z,16.51
2017-07-28T00:42:27.452Z,16.5
2017-07-28T00:42:31.427Z,16.5
2017-07-28T00:42:35.895Z,16.57
2017-07-28T00:42:40.358Z,16.55
2017-07-28T00:42:44.819Z,16.55
2017-07-28T00:42:49.285Z,16.5
2017-07-28T00:42:53.745Z,16.47
2017-07-28T00:42:58.194Z,16.52
2017-07-28T00:43:02.587Z,16.47
2017-07-28T00:43:06.943Z,16.52
2017-07-28T00:43:11.426Z,16.54
2017-07-28T00:43:15.767Z,16.52
2017-07-28T00:43:20.217Z,16.54
2017-07-28T00:43:24.578Z,16.5
2017-07-28T00:43:28.928Z,16.52
2017-07-28T00:43:33.278Z,16.55
2017-07-28T00:43:37.738Z,16.5
2017-07-28T00:43:42.225Z,16.5
2017-07-28T00:43:46.689Z,16.52
2017-07-28T00:43:51.135Z,16.5
2017-07-28T00:43:55.462Z,16.51
2017-07-28T00:43:59.929Z,16.52
2017-07-28T00:44:04.311Z,16.55
2017-07-28T00:44:08.546Z,16.5
2017-07-28T00:44:13.014Z,16.51
2017-07-28T00:44:17.342Z,16.5
2017-07-28T00:44:21.464Z,16.52
2017-07-28T00:44:25.936Z,16.52
2017-07-28T00:44:30.292Z,16.52
2017-07-28T00:44:34.638Z,16.51
2017-07-28T00:44:39.085Z,16.48
2017-07-28T00:44:43.430Z,16.52
2017-07-28T00:44:47.897Z,16.54
2017-07-28T00:44:52.253Z,16.55
2017-07-28T00:44:56.710Z,16.51
2017-07-28T00:45:01.179Z,16.52
2017-07-28T00:45:05.939Z,16.5
2017-07-28T00:45:10.401Z,16.54
2017-07-28T00:45:14.865Z,16.5
2017-07-28T00:45:19.202Z,16.54
2017-07-28T00:45:23.566Z,16.54
2017-07-28T00:45:28.055Z,16.51
2017-07-28T00:45:32.525Z,16.59
2017-07-28T00:45:36.979Z,16.5
2017-07-28T00:45:41.448Z,16.54
2017-07-28T00:45:45.906Z,16.52
2017-07-28T00:45:50.361Z,16.55
2017-07-28T00:45:54.695Z,16.55
2017-07-28T00:45:59.058Z,16.55
2017-07-28T00:46:03.517Z,16.52
2017-07-28T00:46:07.841Z,16.57
2017-07-28T00:46:12.191Z,16.52
2017-07-28T00:46:16.658Z,16.51
2017-07-28T00:46:21.142Z,16.59
2017-07-28T00:46:25.591Z,16.55
2017-07-28T00:46:29.811Z,16.57
2017-07-28T00:46:34.282Z,16.54
2017-07-28T00:46:38.637Z,16.55
2017-07-28T00:46:43.103Z,16.51
2017-07-28T00:46:47.558Z,16.57
2017-07-28T00:46:51.904Z,16.62
2017-07-28T00:46:56.370Z,16.52
2017-07-28T00:47:00.828Z,16.54
2017-07-28T00:47:05.281Z,16.55
2017-07-28T00:47:09.735Z,16.54
2017-07-28T00:47:14.078Z,16.57
2017-07-28T00:47:18.412Z,16.51
2017-07-28T00:47:22.747Z,16.59
2017-07-28T00:47:27.123Z,16.59
2017-07-28T00:47:31.209Z,16.62
2017-07-28T00:47:35.657Z,16.55
2017-07-28T00:47:40.004Z,16.52
2017-07-28T00:47:44.378Z,16.59
2017-07-28T00:47:48.838Z,16.6
2017-07-28T00:47:53.164Z,16.55
2017-07-28T00:47:57.632Z,16.69
2017-07-28T00:48:01.972Z,16.54
2017-07-28T00:48:06.421Z,16.55
2017-07-28T00:48:10.771Z,16.6
2017-07-28T00:48:15.121Z,16.52
2017-07-28T00:48:19.594Z,16.57
2017-07-28T00:48:23.948Z,16.54
2017-07-28T00:48:28.298Z,16.55
2017-07-28T00:48:32.649Z,16.59
2017-07-28T00:48:36.997Z,16.55
2017-07-28T00:48:41.323Z,16.54
2017-07-28T00:48:45.770Z,16.59
2017-07-28T00:48:50.234Z,16.57
2017-07-28T00:48:54.574Z,16.54
2017-07-28T00:48:58.921Z,16.59
2017-07-28T00:49:03.396Z,16.55
2017-07-28T00:49:07.778Z,16.62
2017-07-28T00:49:12.238Z,16.59
2017-07-28T00:49:16.587Z,16.55
2017-07-28T00:49:21.039Z,16.63
2017-07-28T00:49:25.492Z,16.6
2017-07-28T00:49:29.839Z,16.55
2017-07-28T00:49:34.307Z,16.52
2017-07-28T00:49:38.766Z,16.54
2017-07-28T00:49:43.225Z,16.55
2017-07-28T00:49:47.676Z,16.59
2017-07-28T00:49:52.011Z,16.57
2017-07-28T00:49:56.105Z,16.59
2017-07-28T00:50:00.462Z,16.51
2017-07-28T00:50:05.007Z,16.59
2017-07-28T00:50:09.335Z,16.59
2017-07-28T00:50:13.807Z,16.6
2017-07-28T00:50:18.146Z,16.57
2017-07-28T00:50:22.597Z,16.6
2017-07-28T00:50:27.040Z,16.6
2017-07-28T00:50:31.503Z,16.54
2017-07-28T00:50:35.973Z,16.52
2017-07-28T00:50:40.308Z,16.54
2017-07-28T00:50:44.547Z,16.57
2017-07-28T00:50:49.024Z,16.54
2017-07-28T00:50:53.368Z,16.55
2017-07-28T00:50:57.704Z,16.51
2017-07-28T00:51:02.046Z,16.6
2017-07-28T00:51:06.525Z,16.59
2017-07-28T00:51:10.974Z,16.59
2017-07-28T00:51:15.433Z,16.55
2017-07-28T00:51:19.909Z,16.59
2017-07-28T00:51:24.373Z,16.62
2017-07-28T00:51:28.834Z,16.57
2017-07-28T00:51:33.310Z,16.51
2017-07-28T00:51:37.757Z,16.52
2017-07-28T00:51:42.099Z,16.59
2017-07-28T00:51:46.556Z,16.6
2017-07-28T00:51:50.925Z,16.54
2017-07-28T00:51:55.401Z,16.6
2017-07-28T00:51:59.867Z,16.6
2017-07-28T00:52:04.247Z,16.62
2017-07-28T00:52:08.576Z,16.59
2017-07-28T00:52:12.926Z,16.54
2017-07-28T00:52:17.154Z,16.6
2017-07-28T00:52:21.613Z,16.55
2017-07-28T00:52:26.075Z,16.55
2017-07-28T00:52:30.553Z,16.55
2017-07-28T00:52:35.020Z,16.54
2017-07-28T00:52:39.479Z,16.54
2017-07-28T00:52:43.938Z,16.51
2017-07-28T00:52:48.393Z,16.59
2017-07-28T00:52:52.862Z,16.55
2017-07-28T00:52:57.199Z,16.59
2017-07-28T00:53:02.022Z,16.59
2017-07-28T00:53:06.485Z,16.59
2017-07-28T00:53:10.839Z,16.55
2017-07-28T00:53:15.195Z,16.55
2017-07-28T00:53:19.556Z,16.54
2017-07-28T00:53:24.013Z,16.7
2017-07-28T00:53:28.364Z,16.59
2017-07-28T00:53:32.728Z,16.54
2017-07-28T00:53:37.208Z,16.57
2017-07-28T00:53:41.559Z,16.66
2017-07-28T00:53:45.902Z,16.6
2017-07-28T00:53:50.366Z,16.57
2017-07-28T00:53:54.829Z,16.62
2017-07-28T00:53:58.931Z,16.6
2017-07-28T00:54:03.400Z,16.59
2017-07-28T00:54:07.727Z,16.63
2017-07-28T00:54:12.078Z,16.6
2017-07-28T00:54:16.411Z,16.63
2017-07-28T00:54:20.754Z,16.66
2017-07-28T00:54:24.985Z,16.59
2017-07-28T00:54:29.206Z,16.57
2017-07-28T00:54:33.436Z,16.65
2017-07-28T00:54:37.880Z,16.62
2017-07-28T00:54:42.351Z,16.62
2017-07-28T00:54:46.705Z,16.63
2017-07-28T00:54:51.035Z,16.62
2017-07-28T00:54:55.504Z,16.65
2017-07-28T00:54:59.984Z,16.62
2017-07-28T00:55:04.222Z,16.66
2017-07-28T00:55:08.790Z,16.62
2017-07-28T00:55:13.147Z,16.62
2017-07-28T00:55:17.622Z,16.65
2017-07-28T00:55:22.085Z,16.6
2017-07-28T00:55:26.537Z,16.65
2017-07-28T00:55:30.872Z,16.62
2017-07-28T00:55:35.342Z,16.65
2017-07-28T00:55:39.807Z,16.62
2017-07-28T00:55:44.155Z,16.54
2017-07-28T00:55:48.618Z,16.65
2017-07-28T00:55:52.975Z,16.67
2017-07-28T00:55:57.319Z,16.67
2017-07-28T00:56:01.663Z,16.65
2017-07-28T00:56:06.007Z,16.66
2017-07-28T00:56:10.127Z,16.62
2017-07-28T00:56:14.475Z,16.69
2017-07-28T00:56:18.815Z,16.65
2017-07-28T00:56:22.923Z,16.66
2017-07-28T00:56:27.397Z,16.63
2017-07-28T00:56:31.628Z,16.59
2017-07-28T00:56:36.083Z,16.67
2017-07-28T00:56:40.456Z,16.62
2017-07-28T00:56:44.904Z,16.67